createdAt,value
2023-05-10T00:01:46.763Z,10.85
2023-05-10T00:04:13.618Z,10.79
2023-05-10T00:06:40.405Z,10.79
2023-05-10T00:09:07.963Z,10.76
2023-05-10T00:11:34.663Z,10.86
2023-05-10T00:14:01.287Z,10.69
2023-05-10T00:16:28.095Z,10.54
2023-05-10T00:18:54.730Z,10.52
2023-05-10T00:21:21.411Z,10.46
2023-05-10T00:23:48.043Z,10.55
2023-05-10T00:26:14.789Z,10.48
2023-05-10T00:28:41.337Z,10.56
2023-05-10T00:31:07.931Z,10.54
2023-05-10T00:33:34.448Z,10.59
2023-05-10T00:36:01.183Z,10.56
2023-05-10T00:38:27.790Z,10.52
2023-05-10T00:40:54.588Z,10.46
2023-05-10T00:43:21.301Z,10.45
2023-05-10T00:45:48.119Z,10.37
2023-05-10T00:48:14.829Z,10.34
2023-05-10T00:50:42.534Z,10.32
2023-05-10T00:53:10.026Z,10.34
2023-05-10T00:55:37.063Z,10.37
2023-05-10T00:58:03.943Z,10.34
2023-05-10T01:00:31.071Z,10.32
2023-05-10T01:02:57.885Z,10.34
2023-05-10T01:05:24.553Z,10.34
2023-05-10T01:07:51.953Z,10.27
2023-05-10T01:10:19.437Z,10.21
2023-05-10T01:12:48.096Z,10.10
2023-05-10T01:15:16.036Z,10.11
2023-05-10T01:17:45.466Z,10.18
2023-05-10T01:20:13.418Z,10.18
2023-05-10T01:22:40.112Z,10.15
2023-05-10T01:25:09.435Z,10.14
2023-05-10T01:27:57.341Z,10.15
2023-05-10T01:30:42.711Z,10.03
2023-05-10T01:33:17.893Z,9.91
2023-05-10T01:35:52.760Z,9.86
2023-05-10T01:38:33.743Z,9.74
2023-05-10T01:41:09.554Z,9.73
2023-05-10T01:43:54.758Z,9.74
2023-05-10T01:46:28.917Z,9.62
2023-05-10T01:48:58.683Z,9.64
2023-05-10T01:51:28.544Z,9.63
2023-05-10T01:54:01.314Z,9.55
2023-05-10T01:56:30.522Z,9.73
2023-05-10T01:58:58.886Z,9.67
2023-05-10T02:01:27.256Z,9.63
2023-05-10T02:03:55.694Z,9.67
2023-05-10T02:06:24.600Z,9.59
2023-05-10T02:08:53.047Z,9.53
2023-05-10T02:11:21.846Z,9.46
2023-05-10T02:13:50.179Z,9.46
2023-05-10T02:16:19.219Z,9.56
2023-05-10T02:18:49.980Z,9.53
2023-05-10T02:21:17.483Z,9.55
2023-05-10T02:23:46.011Z,9.64
2023-05-10T02:26:14.381Z,9.53
2023-05-10T02:28:42.805Z,9.49
2023-05-10T02:31:11.510Z,9.55
2023-05-10T02:33:41.316Z,9.52
2023-05-10T02:36:09.824Z,9.46
2023-05-10T02:38:37.681Z,9.49
2023-05-10T02:41:06.626Z,9.52
2023-05-10T02:43:34.814Z,9.50
2023-05-10T02:46:01.601Z,9.49
2023-05-10T02:48:28.578Z,9.38
2023-05-10T02:50:58.148Z,9.32
2023-05-10T02:53:34.290Z,9.40
2023-05-10T02:56:05.131Z,9.28
2023-05-10T02:58:31.765Z,9.25
2023-05-10T03:00:58.407Z,9.25
2023-05-10T03:03:25.011Z,9.22
2023-05-10T03:05:51.609Z,9.31
2023-05-10T03:08:18.175Z,9.21
2023-05-10T03:10:57.280Z,9.21
2023-05-10T03:13:36.311Z,9.25
2023-05-10T03:16:13.921Z,9.26
2023-05-10T03:18:51.685Z,9.32
2023-05-10T03:21:19.675Z,9.25
2023-05-10T03:23:54.593Z,9.24
2023-05-10T03:26:31.035Z,9.18
2023-05-10T03:28:59.962Z,9.18
2023-05-10T03:31:26.955Z,9.12
2023-05-10T03:33:53.899Z,9.11
2023-05-10T03:36:20.544Z,9.12
2023-05-10T03:38:47.105Z,9.00
2023-05-10T03:41:13.849Z,8.94
2023-05-10T03:43:40.790Z,8.81
2023-05-10T03:46:07.365Z,8.85
2023-05-10T03:48:34.314Z,9.00
2023-05-10T03:51:00.966Z,9.01
2023-05-10T03:53:27.904Z,9.02
2023-05-10T03:55:54.485Z,8.98
2023-05-10T03:58:21.309Z,8.94
2023-05-10T04:00:47.904Z,8.92
2023-05-10T04:03:14.656Z,9.04
2023-05-10T04:05:41.489Z,9.04
2023-05-10T04:08:08.210Z,9.21
2023-05-10T04:10:35.234Z,9.12
2023-05-10T04:13:01.994Z,9.15
2023-05-10T04:15:28.732Z,9.15
2023-05-10T04:17:55.395Z,9.28
2023-05-10T04:20:22.131Z,9.42
2023-05-10T04:22:51.820Z,9.47
2023-05-10T04:25:18.403Z,9.49
2023-05-10T04:27:45.076Z,9.63
2023-05-10T04:30:12.110Z,9.62
2023-05-10T04:32:38.855Z,9.73
2023-05-10T04:35:06.038Z,9.86
2023-05-10T04:37:32.657Z,9.87
2023-05-10T04:40:00.865Z,10.01
2023-05-10T04:42:27.484Z,9.98
2023-05-10T04:44:54.054Z,10.13
2023-05-10T04:47:20.633Z,10.21
2023-05-10T04:49:47.273Z,10.30
2023-05-10T04:52:14.587Z,10.34
2023-05-10T04:54:41.348Z,10.44
2023-05-10T04:57:07.932Z,10.48
2023-05-10T04:59:36.954Z,10.61
2023-05-10T05:02:04.438Z,10.77
2023-05-10T05:04:31.939Z,10.77
2023-05-10T05:06:58.558Z,10.92
2023-05-10T05:09:25.134Z,11.04
2023-05-10T05:11:51.797Z,11.09
2023-05-10T05:14:18.340Z,11.23
2023-05-10T05:16:45.178Z,11.34
2023-05-10T05:19:11.843Z,11.44
2023-05-10T05:21:38.668Z,11.54
2023-05-10T05:24:05.836Z,11.68
2023-05-10T05:26:32.448Z,11.81
2023-05-10T05:28:59.059Z,11.95
2023-05-10T05:31:26.005Z,12.09
2023-05-10T05:33:52.669Z,12.25
2023-05-10T05:36:19.297Z,12.43
2023-05-10T05:38:46.057Z,12.57
2023-05-10T05:41:13.027Z,12.64
2023-05-10T05:43:39.620Z,12.73
2023-05-10T05:46:06.619Z,12.94
2023-05-10T05:48:33.360Z,13.11
2023-05-10T05:51:00.103Z,13.56
2023-05-10T05:53:26.726Z,15.02
2023-05-10T05:55:58.865Z,16.77
2023-05-10T05:58:26.523Z,17.49
2023-05-10T06:00:53.607Z,18.27
2023-05-10T06:03:20.480Z,18.54
2023-05-10T06:05:47.949Z,19.46
2023-05-10T06:08:14.485Z,19.27
2023-05-10T06:10:41.025Z,19.49
2023-05-10T06:13:07.752Z,20.19
2023-05-10T06:15:34.556Z,19.43
2023-05-10T06:18:01.419Z,19.88
2023-05-10T06:20:28.129Z,19.85
2023-05-10T06:22:54.992Z,19.56
2023-05-10T06:25:21.631Z,19.77
2023-05-10T06:27:52.718Z,20.65
2023-05-10T06:30:21.158Z,20.35
2023-05-10T06:32:47.998Z,20.35
2023-05-10T06:35:15.578Z,19.88
2023-05-10T06:37:42.646Z,20.24
2023-05-10T06:40:10.255Z,20.90
2023-05-10T06:42:36.922Z,20.93
2023-05-10T06:45:03.738Z,20.94
2023-05-10T06:47:30.308Z,21.47
2023-05-10T06:49:57.046Z,21.58
2023-05-10T06:52:24.301Z,22.48
2023-05-10T06:54:50.993Z,21.85
2023-05-10T06:57:30.616Z,21.83
2023-05-10T07:00:02.166Z,21.93
2023-05-10T07:02:29.070Z,21.00
2023-05-10T07:04:55.907Z,22.08
2023-05-10T07:07:22.780Z,22.08
2023-05-10T07:09:50.806Z,21.61
2023-05-10T07:12:17.838Z,21.93
2023-05-10T07:14:44.494Z,21.96
2023-05-10T07:17:11.154Z,21.15
2023-05-10T07:19:37.922Z,22.35
2023-05-10T07:22:04.632Z,23.11
2023-05-10T07:24:32.236Z,23.20
2023-05-10T07:26:59.062Z,24.08
2023-05-10T07:29:26.098Z,24.14
2023-05-10T07:31:52.892Z,24.71
2023-05-10T07:34:19.573Z,23.45
2023-05-10T07:36:46.112Z,23.65
2023-05-10T07:39:16.435Z,24.38
2023-05-10T07:41:51.210Z,23.97
2023-05-10T07:44:20.037Z,24.80
2023-05-10T07:46:47.040Z,24.14
2023-05-10T07:49:13.784Z,24.87
2023-05-10T07:51:40.675Z,25.26
2023-05-10T07:54:07.299Z,25.80
2023-05-10T07:56:34.057Z,25.99
2023-05-10T07:59:01.189Z,26.29
2023-05-10T08:01:32.281Z,26.77
2023-05-10T08:03:58.920Z,25.65
2023-05-10T08:06:28.076Z,25.20
2023-05-10T08:08:55.133Z,25.94
2023-05-10T08:11:22.101Z,24.89
2023-05-10T08:13:50.723Z,25.67
2023-05-10T08:16:18.048Z,24.76
2023-05-10T08:18:50.104Z,26.21
2023-05-10T08:21:16.834Z,26.53
2023-05-10T08:23:44.962Z,26.90
2023-05-10T08:26:12.022Z,27.15
2023-05-10T08:28:38.903Z,27.70
2023-05-10T08:31:06.138Z,27.73
2023-05-10T08:33:32.925Z,27.86
2023-05-10T08:35:59.560Z,27.63
2023-05-10T08:38:26.786Z,26.88
2023-05-10T08:40:57.786Z,26.91
2023-05-10T08:43:29.857Z,27.10
2023-05-10T08:45:59.800Z,27.15
2023-05-10T08:48:29.835Z,27.75
2023-05-10T08:50:59.042Z,27.24
2023-05-10T08:53:28.185Z,27.58
2023-05-10T08:55:55.417Z,28.00
2023-05-10T08:58:22.622Z,28.48
2023-05-10T09:00:51.970Z,28.58
2023-05-10T09:03:18.855Z,28.23
2023-05-10T09:05:46.092Z,28.95
2023-05-10T09:08:14.411Z,28.14
2023-05-10T09:10:43.163Z,28.21
2023-05-10T09:13:12.649Z,28.06
2023-05-10T09:15:39.514Z,28.37
2023-05-10T09:18:06.428Z,29.36
2023-05-10T09:20:33.315Z,28.95
2023-05-10T09:22:59.930Z,29.33
2023-05-10T09:25:26.624Z,29.80
2023-05-10T09:27:53.704Z,29.18
2023-05-10T09:30:29.165Z,29.47
2023-05-10T09:32:56.907Z,28.39
2023-05-10T09:35:28.697Z,29.15
2023-05-10T09:37:58.951Z,29.83
2023-05-10T09:40:27.654Z,29.91
2023-05-10T09:43:04.640Z,30.18
2023-05-10T09:45:33.162Z,31.19
2023-05-10T09:48:02.830Z,31.37
2023-05-10T09:50:30.768Z,31.85
2023-05-10T09:52:59.474Z,31.58
2023-05-10T09:55:46.705Z,30.82
2023-05-10T09:58:14.876Z,30.79
2023-05-10T10:00:46.331Z,31.21
2023-05-10T10:03:15.815Z,30.99
2023-05-10T10:05:44.513Z,31.37
2023-05-10T10:08:12.992Z,29.94
2023-05-10T10:10:41.504Z,29.39
2023-05-10T10:13:09.118Z,29.12
2023-05-10T10:15:36.035Z,29.40
2023-05-10T10:18:05.107Z,30.45
2023-05-10T10:20:32.164Z,31.34
2023-05-10T10:22:58.749Z,31.61
2023-05-10T10:25:26.072Z,31.51
2023-05-10T10:27:52.559Z,31.71
2023-05-10T10:30:21.937Z,31.14
2023-05-10T10:35:54.913Z,30.69
2023-05-10T10:38:21.735Z,30.87
2023-05-10T10:40:48.803Z,30.90
2023-05-10T10:43:28.817Z,31.09
2023-05-10T10:46:22.378Z,31.47
2023-05-10T10:48:50.828Z,31.47
2023-05-10T10:51:17.725Z,31.13
2023-05-10T10:53:44.730Z,30.12
2023-05-10T10:56:14.612Z,30.25
2023-05-10T10:58:42.038Z,30.58
2023-05-10T11:01:16.811Z,29.96
2023-05-10T11:04:06.271Z,30.39
2023-05-10T11:06:37.127Z,30.90
2023-05-10T11:09:08.790Z,30.27
2023-05-10T11:11:37.048Z,30.71
2023-05-10T11:14:05.731Z,30.29
2023-05-10T11:16:43.581Z,30.92
2023-05-10T11:19:12.217Z,32.04
2023-05-10T11:22:06.797Z,32.56
2023-05-10T11:24:34.778Z,31.99
2023-05-10T11:27:01.950Z,32.43
2023-05-10T11:29:28.558Z,31.96
2023-05-10T11:31:58.884Z,32.29
2023-05-10T11:34:31.071Z,32.11
2023-05-10T11:36:58.515Z,32.19
2023-05-10T11:39:29.775Z,32.52
2023-05-10T11:41:57.028Z,32.30
2023-05-10T11:44:24.202Z,32.22
2023-05-10T11:46:50.987Z,32.13
2023-05-10T11:49:17.659Z,31.51
2023-05-10T11:51:44.536Z,31.48
2023-05-10T11:54:12.198Z,32.13
2023-05-10T11:56:40.457Z,31.96
2023-05-10T11:59:07.588Z,31.54
2023-05-10T12:01:34.771Z,31.51
2023-05-10T12:04:02.022Z,31.77
2023-05-10T12:06:31.939Z,31.62
2023-05-10T12:08:59.275Z,31.24
2023-05-10T12:11:28.230Z,28.71
2023-05-10T12:13:56.252Z,29.16
2023-05-10T12:16:25.398Z,30.93
2023-05-10T12:18:53.256Z,31.74
2023-05-10T12:21:22.223Z,31.16
2023-05-10T12:23:53.946Z,30.89
2023-05-10T12:26:25.795Z,31.38
2023-05-10T12:28:52.507Z,31.50
2023-05-10T12:31:19.472Z,30.94
2023-05-10T12:33:47.468Z,29.72
2023-05-10T12:36:15.756Z,27.73
2023-05-10T12:38:44.293Z,30.45
2023-05-10T12:41:12.226Z,31.19
2023-05-10T12:43:39.721Z,31.30
2023-05-10T12:46:07.255Z,30.78
2023-05-10T12:48:35.080Z,31.13
2023-05-10T12:51:02.924Z,31.14
2023-05-10T12:53:29.811Z,31.33
2023-05-10T12:55:57.100Z,31.29
2023-05-10T12:58:35.146Z,31.54
2023-05-10T13:01:03.382Z,29.76
2023-05-10T13:03:30.141Z,27.31
2023-05-10T13:05:56.803Z,29.01
2023-05-10T13:08:23.517Z,30.07
2023-05-10T13:10:50.306Z,30.03
2023-05-10T13:13:17.013Z,29.45
2023-05-10T13:15:43.557Z,29.52
2023-05-10T13:18:10.526Z,29.29
2023-05-10T13:20:37.398Z,28.39
2023-05-10T13:23:04.038Z,27.88
2023-05-10T13:25:30.925Z,26.52
2023-05-10T13:27:57.513Z,28.00
2023-05-10T13:30:24.916Z,28.04
2023-05-10T13:32:51.756Z,26.37
2023-05-10T13:35:18.575Z,25.89
2023-05-10T13:37:45.270Z,26.98
2023-05-10T13:40:12.459Z,26.79
2023-05-10T13:42:39.216Z,27.04
2023-05-10T13:45:06.545Z,27.56
2023-05-10T13:47:33.168Z,27.49
2023-05-10T13:49:59.827Z,27.28
2023-05-10T13:52:27.272Z,27.27
2023-05-10T13:54:55.947Z,26.93
2023-05-10T13:57:24.815Z,27.11
2023-05-10T13:59:51.539Z,27.10
2023-05-10T14:02:18.243Z,26.87
2023-05-10T14:04:44.900Z,26.66
2023-05-10T14:07:11.568Z,26.64
2023-05-10T14:09:38.190Z,26.64
2023-05-10T14:12:05.055Z,26.67
2023-05-10T14:14:31.950Z,26.95
2023-05-10T14:16:58.633Z,26.94
2023-05-10T14:19:25.422Z,26.25
2023-05-10T14:21:52.966Z,25.60
2023-05-10T14:24:19.553Z,24.04
2023-05-10T14:26:46.129Z,24.71
2023-05-10T14:29:12.852Z,24.39
2023-05-10T14:31:39.718Z,24.45
2023-05-10T14:34:06.803Z,24.76
2023-05-10T14:36:33.505Z,25.44
2023-05-10T14:39:00.335Z,25.44
2023-05-10T14:41:27.143Z,25.41
2023-05-10T14:43:54.082Z,25.61
2023-05-10T14:46:20.852Z,25.30
2023-05-10T14:48:47.582Z,25.27
2023-05-10T14:51:14.730Z,25.44
2023-05-10T14:53:41.654Z,25.61
2023-05-10T14:56:08.467Z,25.47
2023-05-10T14:58:35.040Z,25.28
2023-05-10T15:01:01.981Z,24.64
2023-05-10T15:03:29.354Z,25.53
2023-05-10T15:05:58.470Z,25.00
2023-05-10T15:08:28.705Z,25.71
2023-05-10T15:10:56.794Z,26.11
2023-05-10T15:13:23.488Z,25.94
2023-05-10T15:15:50.161Z,25.87
2023-05-10T15:18:17.759Z,25.65
2023-05-10T15:20:44.442Z,25.63
2023-05-10T15:23:11.071Z,25.53
2023-05-10T15:25:38.479Z,25.43
2023-05-10T15:28:05.846Z,25.33
2023-05-10T15:30:33.297Z,24.93
2023-05-10T15:33:00.017Z,24.61
2023-05-10T15:35:27.795Z,24.49
2023-05-10T15:37:54.318Z,24.78
2023-05-10T15:40:20.908Z,24.87
2023-05-10T15:42:47.495Z,24.95
2023-05-10T15:45:14.161Z,24.16
2023-05-10T15:47:40.797Z,24.27
2023-05-10T15:50:08.347Z,23.93
2023-05-10T15:52:35.169Z,23.71
2023-05-10T15:55:01.892Z,23.65
2023-05-10T15:57:28.464Z,23.43
2023-05-10T15:59:56.246Z,23.48
2023-05-10T16:02:23.959Z,23.43
2023-05-10T16:04:51.585Z,23.39
2023-05-10T16:07:18.221Z,23.67
2023-05-10T16:09:44.780Z,23.09
2023-05-10T16:12:11.320Z,23.01
2023-05-10T16:14:37.900Z,22.87
2023-05-10T16:17:04.705Z,22.61
2023-05-10T16:19:31.817Z,22.56
2023-05-10T16:21:58.648Z,22.32
2023-05-10T16:24:26.108Z,22.36
2023-05-10T16:26:52.702Z,22.36
2023-05-10T16:29:19.256Z,22.23
2023-05-10T16:31:46.318Z,22.14
2023-05-10T16:34:12.946Z,22.14
2023-05-10T16:36:39.511Z,22.16
2023-05-10T16:39:06.242Z,22.17
2023-05-10T16:41:34.279Z,21.99
2023-05-10T16:44:01.573Z,21.95
2023-05-10T16:46:28.278Z,21.90
2023-05-10T16:48:54.906Z,21.47
2023-05-10T16:51:21.577Z,21.35
2023-05-10T16:53:48.156Z,21.07
2023-05-10T16:56:14.812Z,20.76
2023-05-10T16:58:41.443Z,20.75
2023-05-10T17:01:07.995Z,20.80
2023-05-10T17:03:34.773Z,20.28
2023-05-10T17:06:01.534Z,20.46
2023-05-10T17:08:28.218Z,20.31
2023-05-10T17:10:54.917Z,20.19
2023-05-10T17:13:21.509Z,20.12
2023-05-10T17:15:48.165Z,20.04
2023-05-10T17:18:14.841Z,19.67
2023-05-10T17:20:45.076Z,19.75
2023-05-10T17:23:11.810Z,19.50
2023-05-10T17:25:38.427Z,19.50
2023-05-10T17:28:05.119Z,19.46
2023-05-10T17:30:32.697Z,19.43
2023-05-10T17:33:00.492Z,19.27
2023-05-10T17:50:56.352Z,18.55
2023-05-10T17:53:43.265Z,18.57
2023-05-10T17:56:09.841Z,18.44
2023-05-10T17:58:38.287Z,18.31
2023-05-10T18:01:05.894Z,18.18
2023-05-10T18:03:32.914Z,18.09
2023-05-10T18:06:00.427Z,17.96
2023-05-10T18:08:27.217Z,17.85
2023-05-10T18:10:53.793Z,17.73
2023-05-10T18:13:20.921Z,17.63
2023-05-10T18:15:48.125Z,17.51
2023-05-10T18:18:16.921Z,17.43
2023-05-10T18:20:44.001Z,17.35
2023-05-10T18:23:10.559Z,17.27
2023-05-10T18:25:37.224Z,17.18
2023-05-10T18:28:04.068Z,17.08
2023-05-10T18:30:30.955Z,17.01
2023-05-10T18:32:58.057Z,16.88
2023-05-10T18:35:24.744Z,16.81
2023-05-10T18:37:52.558Z,16.76
2023-05-10T18:40:19.611Z,16.63
2023-05-10T18:42:50.488Z,16.55
2023-05-10T18:45:17.386Z,16.45
2023-05-10T18:47:44.383Z,16.36
2023-05-10T18:50:11.829Z,16.26
2023-05-10T18:52:40.037Z,16.13
2023-05-10T18:55:07.361Z,16.05
2023-05-10T18:57:39.459Z,15.95
2023-05-10T19:00:10.071Z,15.88
2023-05-10T19:02:38.620Z,15.77
2023-05-10T19:05:06.329Z,15.68
2023-05-10T19:07:33.227Z,15.60
2023-05-10T19:09:59.888Z,15.53
2023-05-10T19:12:27.316Z,15.40
2023-05-10T19:14:54.004Z,15.33
2023-05-10T19:17:20.617Z,15.22
2023-05-10T19:19:47.188Z,15.16
2023-05-10T19:22:13.974Z,15.04
2023-05-10T19:24:40.623Z,14.98
2023-05-10T19:27:07.237Z,14.88
2023-05-10T19:29:33.927Z,14.78
2023-05-10T19:32:00.742Z,14.71
2023-05-10T19:34:28.207Z,14.61
2023-05-10T19:36:54.829Z,14.54
2023-05-10T19:39:21.481Z,14.45
2023-05-10T19:41:49.563Z,14.38
2023-05-10T19:44:16.356Z,14.30
2023-05-10T19:46:43.070Z,14.24
2023-05-10T19:49:09.722Z,14.14
2023-05-10T19:51:36.245Z,14.06
2023-05-10T19:54:02.891Z,13.99
2023-05-10T19:56:29.909Z,13.93
2023-05-10T19:58:56.443Z,13.86
2023-05-10T20:01:23.135Z,13.82
2023-05-10T20:03:49.951Z,13.76
2023-05-10T20:06:16.554Z,13.70
2023-05-10T20:08:43.584Z,13.62
2023-05-10T20:11:10.553Z,13.59
2023-05-10T20:13:38.456Z,13.53
2023-05-10T20:16:06.108Z,13.49
2023-05-10T20:18:33.302Z,13.43
2023-05-10T20:21:00.924Z,13.38
2023-05-10T20:23:27.558Z,13.34
2023-05-10T20:25:55.011Z,13.28
2023-05-10T20:28:23.769Z,13.22
2023-05-10T20:30:54.261Z,13.15
2023-05-10T20:33:22.024Z,13.11
2023-05-10T20:35:50.078Z,13.08
2023-05-10T20:38:18.128Z,13.04
2023-05-10T20:40:45.552Z,13.00
2023-05-10T20:43:12.578Z,12.98
2023-05-10T20:45:39.363Z,12.93
2023-05-10T20:48:06.397Z,12.91
2023-05-10T20:50:33.126Z,12.84
2023-05-10T20:53:01.062Z,12.79
2023-05-10T20:55:28.386Z,12.71
2023-05-10T20:57:55.219Z,12.70
2023-05-10T21:00:21.911Z,12.63
2023-05-10T21:02:49.896Z,12.57
2023-05-10T21:05:18.116Z,12.50
2023-05-10T21:07:44.835Z,12.47
2023-05-10T21:10:11.782Z,12.43
2023-05-10T21:12:39.846Z,12.39
2023-05-10T21:15:08.144Z,12.33
2023-05-10T21:17:34.858Z,12.29
2023-05-10T21:20:01.480Z,12.25
2023-05-10T21:22:28.003Z,12.21
2023-05-10T21:24:54.817Z,12.12
2023-05-10T21:27:21.572Z,12.09
2023-05-10T21:29:48.299Z,12.06
2023-05-10T21:32:15.045Z,12.01
2023-05-10T21:34:41.866Z,11.94
2023-05-10T21:37:08.450Z,11.92
2023-05-10T21:39:35.005Z,11.89
2023-05-10T21:42:01.748Z,11.82
2023-05-10T21:44:28.261Z,11.79
2023-05-10T21:46:55.050Z,11.75
2023-05-10T21:49:21.592Z,11.72
2023-05-10T21:51:48.588Z,11.65
2023-05-10T21:54:15.193Z,11.62
2023-05-10T21:56:42.038Z,11.60
2023-05-10T21:59:08.904Z,11.54
2023-05-10T22:01:35.733Z,11.51
2023-05-10T22:04:02.552Z,11.51
2023-05-10T22:06:29.128Z,11.45
2023-05-10T22:08:55.818Z,11.45
2023-05-10T22:11:23.333Z,11.48
2023-05-10T22:13:49.930Z,11.44
2023-05-10T22:16:16.709Z,11.43
2023-05-10T22:18:43.902Z,11.40
2023-05-10T22:21:10.635Z,11.35
2023-05-10T22:23:37.246Z,11.33
2023-05-10T22:26:04.220Z,11.31
2023-05-10T22:28:30.801Z,11.30
2023-05-10T22:30:57.413Z,11.27
2023-05-10T22:33:24.090Z,11.26
2023-05-10T22:35:50.862Z,11.26
2023-05-10T22:38:17.480Z,11.28
2023-05-10T22:40:44.045Z,11.31
2023-05-10T22:43:10.887Z,11.30
2023-05-10T22:45:37.423Z,11.35
2023-05-10T22:48:05.152Z,11.41
2023-05-10T22:50:31.959Z,11.44
2023-05-10T22:52:58.663Z,11.48
2023-05-10T22:55:25.398Z,11.48
2023-05-10T22:57:52.331Z,11.45
2023-05-10T23:00:20.058Z,11.45
2023-05-10T23:02:47.025Z,11.44
2023-05-10T23:05:13.806Z,11.44
2023-05-10T23:07:40.593Z,11.41
2023-05-10T23:10:07.605Z,11.35
2023-05-10T23:12:34.473Z,11.35
2023-05-10T23:15:01.292Z,11.31
2023-05-10T23:17:28.031Z,11.30
2023-05-10T23:19:54.664Z,11.27
2023-05-10T23:22:21.238Z,11.22
2023-05-10T23:24:47.782Z,11.13
2023-05-10T23:27:14.694Z,11.12
2023-05-10T23:29:41.905Z,11.09
2023-05-10T23:32:08.611Z,11.03
2023-05-10T23:34:35.307Z,10.95
2023-05-10T23:37:02.315Z,10.93
2023-05-10T23:39:28.871Z,10.86
2023-05-10T23:41:55.450Z,10.82
2023-05-10T23:44:22.005Z,10.77
2023-05-10T23:46:48.640Z,10.75
2023-05-10T23:49:15.321Z,10.71
2023-05-10T23:51:42.005Z,10.63
2023-05-10T23:54:08.696Z,10.58
2023-05-10T23:56:35.519Z,10.54
2023-05-10T23:59:02.061Z,10.49
